createdAt,value
2022-09-02T00:01:33.300Z,1.23
2022-09-02T00:04:06.283Z,1.20
2022-09-02T00:06:34.194Z,0.98
2022-09-02T00:09:02.130Z,1.10
2022-09-02T00:11:31.831Z,1.00
2022-09-02T00:13:59.852Z,1.20
2022-09-02T00:16:27.608Z,1.40
2022-09-02T00:18:56.543Z,1.20
2022-09-02T00:21:24.909Z,1.20
2022-09-02T00:23:52.217Z,1.08
2022-09-02T00:26:19.681Z,1.10
2022-09-02T00:28:51.077Z,1.40
2022-09-02T00:31:23.594Z,1.20
2022-09-02T00:33:51.799Z,1.33
2022-09-02T00:36:19.103Z,1.45
2022-09-02T00:38:47.238Z,1.00
2022-09-02T00:41:15.544Z,1.33
2022-09-02T00:43:45.139Z,1.10
2022-09-02T00:46:13.492Z,1.77
2022-09-02T00:48:43.124Z,1.10
2022-09-02T00:51:11.888Z,1.25
2022-09-02T00:53:40.126Z,1.20
2022-09-02T00:56:10.568Z,0.93
2022-09-02T00:58:38.204Z,1.20
2022-09-02T01:01:06.336Z,1.58
2022-09-02T01:03:34.658Z,1.30
2022-09-02T01:06:02.912Z,1.17
2022-09-02T01:08:34.690Z,1.20
2022-09-02T01:11:02.987Z,1.30
2022-09-02T01:13:38.834Z,1.20
2022-09-02T01:16:06.146Z,1.67
2022-09-02T01:18:36.801Z,1.38
2022-09-02T01:21:04.206Z,1.50
2022-09-02T01:23:34.814Z,1.50
2022-09-02T01:26:02.252Z,1.30
2022-09-02T01:28:29.708Z,1.30
2022-09-02T01:30:57.193Z,1.17
2022-09-02T01:33:25.245Z,1.23
2022-09-02T01:35:54.074Z,1.23
2022-09-02T01:38:22.721Z,1.17
2022-09-02T01:40:50.200Z,1.42
2022-09-02T01:43:20.174Z,1.45
2022-09-02T01:45:48.085Z,1.15
2022-09-02T01:48:18.059Z,1.20
2022-09-02T01:50:51.598Z,1.48
2022-09-02T01:53:19.220Z,1.58
2022-09-02T01:55:47.062Z,1.70
2022-09-02T01:58:14.479Z,1.50
2022-09-02T02:00:42.076Z,1.38
2022-09-02T02:03:09.639Z,1.30
2022-09-02T02:05:37.176Z,1.60
2022-09-02T02:08:05.071Z,1.60
2022-09-02T02:10:32.638Z,1.40
2022-09-02T02:13:01.085Z,1.30
2022-09-02T02:17:54.990Z,1.48
2022-09-02T02:20:23.023Z,1.73
2022-09-02T02:22:50.790Z,1.50
2022-09-02T02:25:19.199Z,1.50
2022-09-02T02:27:46.605Z,1.80
2022-09-02T02:30:15.678Z,1.88
2022-09-02T02:32:43.281Z,1.52
2022-09-02T02:35:11.544Z,1.40
2022-09-02T02:37:42.035Z,1.50
2022-09-02T02:40:11.969Z,1.63
2022-09-02T02:42:40.010Z,1.80
2022-09-02T02:45:15.185Z,1.95
2022-09-02T02:47:46.322Z,2.28
2022-09-02T02:50:15.892Z,2.15
2022-09-02T02:52:43.769Z,1.70
2022-09-02T02:55:12.103Z,2.08
2022-09-02T02:57:40.365Z,1.40
2022-09-02T03:00:13.863Z,2.00
2022-09-02T03:02:41.316Z,1.83
2022-09-02T03:05:09.869Z,1.70
2022-09-02T03:07:37.442Z,2.22
2022-09-02T03:10:07.299Z,1.98
2022-09-02T03:12:35.309Z,2.72
2022-09-02T03:15:03.151Z,2.30
2022-09-02T03:17:30.822Z,1.70
2022-09-02T03:19:59.476Z,1.80
2022-09-02T03:22:29.693Z,1.85
2022-09-02T03:24:57.338Z,1.73
2022-09-02T03:27:24.811Z,2.08
2022-09-02T03:29:52.510Z,1.90
2022-09-02T03:32:19.855Z,1.98
2022-09-02T03:34:47.452Z,1.90
2022-09-02T03:37:14.905Z,1.80
2022-09-02T03:39:42.290Z,1.88
2022-09-02T03:42:13.383Z,2.10
2022-09-02T03:44:47.754Z,1.80
2022-09-02T03:47:17.286Z,1.85
2022-09-02T03:49:48.499Z,1.92
2022-09-02T03:52:15.890Z,2.25
2022-09-02T03:54:43.406Z,3.08
2022-09-02T03:57:10.765Z,2.42
2022-09-02T03:59:38.433Z,2.00
2022-09-02T04:02:06.295Z,2.38
2022-09-02T04:04:34.196Z,2.30
2022-09-02T04:07:01.728Z,2.60
2022-09-02T04:09:29.261Z,2.17
2022-09-02T04:11:56.639Z,2.00
2022-09-02T04:14:24.222Z,2.05
2022-09-02T04:16:51.529Z,1.90
2022-09-02T04:19:19.098Z,2.25
2022-09-02T04:21:46.438Z,2.50
2022-09-02T04:24:13.822Z,2.50
2022-09-02T04:26:45.188Z,2.20
2022-09-02T04:29:13.422Z,2.30
2022-09-02T04:31:40.815Z,2.30
2022-09-02T04:34:08.217Z,2.40
2022-09-02T04:36:36.025Z,2.65
2022-09-02T04:39:03.552Z,2.35
2022-09-02T04:41:31.882Z,2.50
2022-09-02T04:43:59.912Z,2.50
2022-09-02T04:46:29.694Z,2.30
2022-09-02T04:49:02.920Z,2.30
2022-09-02T04:51:30.728Z,2.40
2022-09-02T04:53:58.563Z,2.60
2022-09-02T04:56:27.690Z,2.50
2022-09-02T04:58:55.653Z,2.65
2022-09-02T05:01:24.863Z,2.25
2022-09-02T05:03:54.359Z,2.40
2022-09-02T05:06:23.439Z,2.22
2022-09-02T05:08:51.154Z,2.20
2022-09-02T05:11:20.377Z,2.97
2022-09-02T05:13:51.663Z,2.53
2022-09-02T05:16:23.337Z,2.50
2022-09-02T05:18:52.045Z,2.30
2022-09-02T05:21:19.712Z,2.45
2022-09-02T05:23:47.643Z,2.13
2022-09-02T05:26:14.981Z,2.20
2022-09-02T05:28:43.597Z,2.58
2022-09-02T05:31:12.910Z,2.58
2022-09-02T05:33:44.182Z,2.22
2022-09-02T05:36:16.109Z,2.30
2022-09-02T05:38:44.049Z,2.00
2022-09-02T05:41:16.199Z,2.20
2022-09-02T05:43:47.515Z,2.30
2022-09-02T05:46:17.905Z,2.30
2022-09-02T05:49:16.085Z,2.35
2022-09-02T05:51:45.158Z,2.10
2022-09-02T05:54:17.792Z,2.33
2022-09-02T05:56:46.467Z,2.20
2022-09-02T05:59:14.284Z,2.00
2022-09-02T06:01:41.880Z,1.42
2022-09-02T06:04:09.445Z,1.98
2022-09-02T06:06:39.112Z,2.25
2022-09-02T06:09:08.711Z,2.05
2022-09-02T06:11:40.291Z,1.80
2022-09-02T06:14:08.848Z,1.77
2022-09-02T06:16:37.101Z,1.80
2022-09-02T06:19:04.580Z,2.13
2022-09-02T06:21:33.116Z,1.90
2022-09-02T06:24:00.848Z,1.50
2022-09-02T06:26:28.411Z,1.83
2022-09-02T06:28:55.956Z,2.10
2022-09-02T06:31:23.863Z,1.70
2022-09-02T06:33:55.947Z,1.50
2022-09-02T06:36:28.208Z,1.48
2022-09-02T06:38:57.497Z,1.40
2022-09-02T06:41:29.634Z,1.45
2022-09-02T06:43:58.323Z,1.30
2022-09-02T06:46:29.128Z,1.40
2022-09-02T06:48:56.676Z,1.33
2022-09-02T06:51:26.060Z,1.30
2022-09-02T06:53:53.628Z,1.30
2022-09-02T06:56:21.085Z,1.30
2022-09-02T06:58:48.576Z,1.10
2022-09-02T07:01:23.246Z,1.48
2022-09-02T07:04:09.503Z,1.20
2022-09-02T07:06:39.050Z,1.30
2022-09-02T07:09:07.424Z,0.95
2022-09-02T07:11:35.464Z,1.45
2022-09-02T07:14:03.141Z,1.10
2022-09-02T07:16:32.602Z,1.52
2022-09-02T07:19:01.651Z,1.38
2022-09-02T07:21:30.126Z,0.90
2022-09-02T07:24:01.381Z,1.08
2022-09-02T07:26:29.749Z,1.02
2022-09-02T07:28:57.234Z,1.00
2022-09-02T07:31:24.903Z,1.00
2022-09-02T07:33:52.451Z,1.17
2022-09-02T07:36:22.025Z,1.30
2022-09-02T07:38:49.690Z,0.95
2022-09-02T07:41:17.236Z,1.23
2022-09-02T07:43:48.422Z,1.50
2022-09-02T07:46:19.357Z,1.20
2022-09-02T07:48:50.492Z,1.65
2022-09-02T07:51:19.178Z,0.95
2022-09-02T07:53:47.227Z,0.98
2022-09-02T07:56:15.188Z,1.30
2022-09-02T07:58:43.737Z,1.63
2022-09-02T08:06:10.661Z,1.00
2022-09-02T08:08:38.035Z,1.48
2022-09-02T08:11:05.582Z,1.27
2022-09-02T08:13:33.247Z,1.23
2022-09-02T08:16:01.279Z,1.30
2022-09-02T08:18:28.792Z,1.33
2022-09-02T08:20:56.227Z,1.10
2022-09-02T08:23:36.576Z,1.20
2022-09-02T08:26:05.827Z,1.30
2022-09-02T08:28:33.547Z,1.30
2022-09-02T08:31:05.190Z,1.48
2022-09-02T08:33:32.754Z,1.23
2022-09-02T08:36:12.177Z,1.17
2022-09-02T08:38:39.590Z,1.23
2022-09-02T08:41:25.266Z,1.27
2022-09-02T08:43:54.242Z,1.45
2022-09-02T08:46:26.178Z,1.52
2022-09-02T08:48:56.651Z,1.50
2022-09-02T08:51:42.903Z,1.88
2022-09-02T08:54:14.622Z,1.17
2022-09-02T08:56:42.409Z,1.30
2022-09-02T08:59:10.625Z,1.58
2022-09-02T09:01:44.531Z,1.10
2022-09-02T09:04:18.899Z,1.30
2022-09-02T09:06:49.228Z,1.33
2022-09-02T09:09:16.791Z,1.00
2022-09-02T09:11:52.306Z,0.93
2022-09-02T09:14:31.491Z,1.15
2022-09-02T09:16:58.981Z,1.35
2022-09-02T09:19:33.456Z,1.58
2022-09-02T09:22:03.637Z,1.30
2022-09-02T09:24:34.142Z,1.20
2022-09-02T09:27:02.302Z,1.10
2022-09-02T09:29:33.349Z,1.48
2022-09-02T09:32:01.140Z,1.02
2022-09-02T09:34:48.925Z,1.38
2022-09-02T09:37:32.696Z,1.52
2022-09-02T09:40:03.064Z,1.30
2022-09-02T09:42:37.650Z,1.38
2022-09-02T09:45:31.013Z,1.33
2022-09-02T09:48:07.841Z,1.33
2022-09-02T09:50:35.398Z,1.20
2022-09-02T09:53:22.046Z,1.38
2022-09-02T09:55:56.841Z,1.27
2022-09-02T09:58:26.034Z,1.40
2022-09-02T10:01:00.687Z,1.25
2022-09-02T10:06:18.069Z,1.30
2022-09-02T10:09:11.792Z,1.00
2022-09-02T10:11:39.409Z,1.20
2022-09-02T10:14:10.202Z,1.10
2022-09-02T10:16:45.140Z,1.50
2022-09-02T10:19:19.065Z,1.30
2022-09-02T10:22:05.069Z,1.30
2022-09-02T10:24:41.531Z,1.20
2022-09-02T10:27:12.419Z,1.10
2022-09-02T10:30:09.262Z,1.08
2022-09-02T10:32:55.639Z,1.10
2022-09-02T10:35:34.134Z,1.27
2022-09-02T10:38:01.676Z,1.00
2022-09-02T10:40:44.483Z,0.98
2022-09-02T10:43:32.474Z,1.30
2022-09-02T10:46:01.789Z,1.40
2022-09-02T10:48:32.373Z,0.95
2022-09-02T10:51:09.584Z,1.00
2022-09-02T10:53:45.975Z,1.25
2022-09-02T10:56:27.915Z,1.20
2022-09-02T11:01:32.299Z,1.00
2022-09-02T11:04:10.918Z,0.93
2022-09-02T11:07:01.414Z,0.93
2022-09-02T11:09:31.540Z,1.02
2022-09-02T11:12:03.482Z,1.25
2022-09-02T11:14:35.303Z,1.08
2022-09-02T11:17:13.197Z,1.13
2022-09-02T11:20:16.630Z,1.58
2022-09-02T11:23:00.252Z,1.17
2022-09-02T11:25:38.502Z,1.23
2022-09-02T11:28:24.849Z,1.10
2022-09-02T11:30:56.868Z,1.10
2022-09-02T11:33:29.243Z,1.33
2022-09-02T11:35:59.444Z,1.15
2022-09-02T11:38:50.593Z,1.10
2022-09-02T11:41:37.750Z,1.10
2022-09-02T11:44:26.858Z,1.00
2022-09-02T11:46:56.817Z,1.00
2022-09-02T11:49:29.614Z,1.08
2022-09-02T11:52:03.322Z,1.17
2022-09-02T11:54:37.589Z,1.48
2022-09-02T11:57:06.855Z,1.43
2022-09-02T11:59:52.801Z,1.08
2022-09-02T12:02:41.427Z,1.10
2022-09-02T12:05:30.243Z,1.20
2022-09-02T12:07:58.859Z,0.90
2022-09-02T12:10:44.712Z,1.00
2022-09-02T12:13:32.928Z,1.20
2022-09-02T12:16:16.074Z,1.38
2022-09-02T12:18:44.948Z,1.27
2022-09-02T12:21:23.346Z,1.60
2022-09-02T12:23:54.081Z,1.10
2022-09-02T12:26:54.030Z,1.40
2022-09-02T12:29:24.875Z,1.20
2022-09-02T12:31:53.495Z,1.17
2022-09-02T12:34:20.860Z,1.20
2022-09-02T12:36:58.777Z,1.00
2022-09-02T12:39:26.114Z,0.98
2022-09-02T12:42:12.928Z,0.85
2022-09-02T12:44:46.566Z,1.00
2022-09-02T12:47:20.425Z,1.00
2022-09-02T12:49:51.686Z,0.90
2022-09-02T12:52:37.192Z,0.95
2022-09-02T12:55:16.453Z,1.10
2022-09-02T12:57:45.788Z,1.08
2022-09-02T13:00:17.547Z,0.90
2022-09-02T13:02:45.106Z,0.98
2022-09-02T13:05:16.198Z,0.93
2022-09-02T13:07:44.104Z,1.00
2022-09-02T13:10:23.676Z,1.20
2022-09-02T13:13:07.842Z,1.10
2022-09-02T13:15:53.916Z,0.90
2022-09-02T13:18:37.421Z,1.02
2022-09-02T13:21:14.460Z,0.93
2022-09-02T13:23:45.090Z,0.93
2022-09-02T13:26:48.416Z,0.80
2022-09-02T13:29:19.739Z,1.02
2022-09-02T13:32:05.947Z,0.88
2022-09-02T13:34:33.551Z,1.00
2022-09-02T13:37:00.942Z,0.80
2022-09-02T13:39:29.043Z,1.02
2022-09-02T13:41:57.221Z,1.00
2022-09-02T13:44:31.630Z,0.98
2022-09-02T13:47:13.750Z,1.63
2022-09-02T13:49:42.329Z,1.00
2022-09-02T13:52:17.107Z,0.95
2022-09-02T13:54:46.463Z,0.95
2022-09-02T13:57:18.069Z,0.82
2022-09-02T13:59:53.395Z,1.10
2022-09-02T14:02:22.917Z,0.80
2022-09-02T14:04:51.834Z,0.93
2022-09-02T14:07:22.504Z,1.10
2022-09-02T14:09:50.263Z,1.25
2022-09-02T14:12:19.324Z,0.93
2022-09-02T14:14:47.186Z,1.10
2022-09-02T14:17:21.443Z,1.52
2022-09-02T14:19:49.293Z,1.10
2022-09-02T14:22:22.270Z,0.90
2022-09-02T14:24:49.903Z,1.00
2022-09-02T14:27:18.928Z,0.93
2022-09-02T14:29:47.584Z,0.98
2022-09-02T14:32:16.745Z,1.05
2022-09-02T14:34:45.894Z,0.88
2022-09-02T14:37:19.461Z,1.00
2022-09-02T14:40:12.235Z,1.10
2022-09-02T14:42:57.486Z,1.38
2022-09-02T14:47:52.936Z,1.08
2022-09-02T14:50:21.106Z,1.17
2022-09-02T14:52:59.869Z,1.00
2022-09-02T14:55:47.499Z,0.90
2022-09-02T14:58:15.602Z,0.95
2022-09-02T15:00:45.163Z,1.02
2022-09-02T15:03:15.162Z,1.00
2022-09-02T15:05:42.912Z,1.33
2022-09-02T15:08:10.613Z,2.85
2022-09-02T15:10:40.426Z,1.23
2022-09-02T15:13:14.704Z,1.00
2022-09-02T15:15:42.197Z,1.02
2022-09-02T15:18:09.827Z,1.00
2022-09-02T15:20:37.366Z,0.90
2022-09-02T15:23:04.812Z,0.70
2022-09-02T15:25:32.278Z,0.90
2022-09-02T15:27:59.932Z,0.80
2022-09-02T15:30:27.454Z,1.10
2022-09-02T15:32:54.880Z,1.02
2022-09-02T15:35:22.743Z,0.80
2022-09-02T15:37:51.053Z,0.90
2022-09-02T15:40:18.523Z,0.80
2022-09-02T15:42:46.010Z,1.02
2022-09-02T15:45:13.378Z,0.85
2022-09-02T15:47:41.670Z,0.70
2022-09-02T15:50:11.251Z,0.90
2022-09-02T15:52:41.928Z,0.93
2022-09-02T15:55:10.788Z,1.20
2022-09-02T15:57:38.330Z,0.80
2022-09-02T16:00:10.653Z,0.90
2022-09-02T16:02:38.517Z,0.73
2022-09-02T16:05:06.171Z,1.05
2022-09-02T16:07:34.322Z,0.88
2022-09-02T16:10:03.694Z,0.80
2022-09-02T16:12:31.885Z,0.93
2022-09-02T16:15:00.211Z,0.90
2022-09-02T16:17:27.782Z,0.90
2022-09-02T16:20:22.582Z,0.70
2022-09-02T16:23:02.015Z,0.90
2022-09-02T16:25:29.478Z,1.30
2022-09-02T16:27:57.294Z,0.90
2022-09-02T16:30:26.482Z,1.45
2022-09-02T16:32:54.265Z,0.90
2022-09-02T16:35:22.084Z,0.70
2022-09-02T16:37:49.949Z,1.17
2022-09-02T16:40:21.728Z,0.80
2022-09-02T16:42:49.574Z,0.80
2022-09-02T16:45:16.996Z,0.77
2022-09-02T16:47:44.339Z,0.98
2022-09-02T16:50:12.934Z,0.90
2022-09-02T16:52:41.316Z,0.93
2022-09-02T16:55:08.893Z,0.73
2022-09-02T16:57:36.281Z,0.80
2022-09-02T17:00:04.277Z,0.60
2022-09-02T17:02:31.688Z,0.70
2022-09-02T17:04:59.096Z,0.80
2022-09-02T17:07:26.449Z,0.90
2022-09-02T17:09:53.887Z,0.70
2022-09-02T17:12:21.280Z,1.00
2022-09-02T17:14:48.740Z,0.88
2022-09-02T17:17:17.382Z,0.60
2022-09-02T17:19:44.846Z,0.70
2022-09-02T17:22:12.254Z,0.52
2022-09-02T17:24:42.153Z,0.70
2022-09-02T17:27:09.589Z,0.50
2022-09-02T17:29:52.408Z,0.70
2022-09-02T17:32:20.327Z,1.52
2022-09-02T17:34:49.721Z,1.00
2022-09-02T17:37:17.319Z,1.40
2022-09-02T17:39:44.761Z,0.70
2022-09-02T17:42:14.030Z,1.13
2022-09-02T17:44:42.732Z,0.60
2022-09-02T17:47:13.071Z,0.60
2022-09-02T17:49:44.933Z,0.85
2022-09-02T17:52:16.581Z,0.80
2022-09-02T17:54:43.933Z,1.00
2022-09-02T17:57:24.311Z,0.52
2022-09-02T17:59:59.480Z,1.50
2022-09-02T18:02:39.012Z,0.80
2022-09-02T18:05:29.147Z,0.80
2022-09-02T18:08:09.783Z,0.90
2022-09-02T18:10:38.576Z,0.70
2022-09-02T18:13:07.638Z,0.70
2022-09-02T18:15:45.527Z,0.73
2022-09-02T18:18:18.880Z,0.57
2022-09-02T18:20:49.129Z,0.70
2022-09-02T18:23:54.992Z,0.70
2022-09-02T18:26:25.254Z,0.80
2022-09-02T18:29:01.886Z,0.60
2022-09-02T18:31:30.943Z,1.00
2022-09-02T18:34:07.159Z,0.90
2022-09-02T18:36:39.598Z,1.08
2022-09-02T18:39:33.430Z,1.08
2022-09-02T18:42:15.427Z,1.17
2022-09-02T18:44:45.792Z,1.05
2022-09-02T18:47:21.472Z,1.20
2022-09-02T18:49:51.265Z,0.93
2022-09-02T18:52:21.346Z,1.20
2022-09-02T18:54:50.686Z,1.13
2022-09-02T18:57:18.312Z,0.90
2022-09-02T18:59:55.398Z,1.10
2022-09-02T19:02:29.267Z,0.98
2022-09-02T19:05:01.352Z,1.20
2022-09-02T19:07:47.756Z,1.00
2022-09-02T19:10:15.201Z,0.93
2022-09-02T19:12:43.868Z,1.23
2022-09-02T19:15:13.090Z,1.02
2022-09-02T19:17:43.537Z,1.02
2022-09-02T19:20:11.239Z,0.90
2022-09-02T19:22:43.177Z,0.80
2022-09-02T19:25:18.731Z,0.75
2022-09-02T19:27:48.132Z,0.70
2022-09-02T19:30:18.881Z,1.10
2022-09-02T19:32:47.912Z,0.90
2022-09-02T19:35:17.582Z,0.90
2022-09-02T19:37:47.146Z,1.00
2022-09-02T19:40:17.187Z,0.90
2022-09-02T19:42:45.730Z,0.98
2022-09-02T19:45:16.375Z,0.95
2022-09-02T19:48:06.036Z,0.80
2022-09-02T19:50:37.398Z,0.93
2022-09-02T19:53:05.043Z,1.00
2022-09-02T19:55:33.917Z,0.80
2022-09-02T19:58:01.459Z,0.85
2022-09-02T20:00:29.081Z,0.80
2022-09-02T20:02:56.632Z,0.60
2022-09-02T20:05:26.040Z,0.63
2022-09-02T20:07:59.565Z,0.60
2022-09-02T20:10:28.180Z,0.50
2022-09-02T20:12:57.382Z,0.70
2022-09-02T20:15:24.738Z,0.77
2022-09-02T20:17:52.256Z,0.70
2022-09-02T20:20:21.875Z,0.68
2022-09-02T20:22:50.466Z,0.80
2022-09-02T20:25:18.029Z,0.82
2022-09-02T20:27:46.915Z,0.65
2022-09-02T20:30:16.009Z,0.60
2022-09-02T20:32:45.353Z,0.60
2022-09-02T20:35:12.907Z,0.80
2022-09-02T20:37:59.423Z,0.73
2022-09-02T20:40:48.383Z,0.70
2022-09-02T20:43:17.169Z,0.80
2022-09-02T20:45:48.147Z,0.60
2022-09-02T20:48:25.334Z,0.70
2022-09-02T20:51:03.159Z,0.65
2022-09-02T20:53:33.675Z,0.60
2022-09-02T20:56:01.021Z,0.70
2022-09-02T20:58:45.604Z,0.63
2022-09-02T21:01:18.532Z,0.60
2022-09-02T21:04:04.437Z,0.52
2022-09-02T21:06:34.125Z,0.85
2022-09-02T21:09:04.878Z,0.70
2022-09-02T21:11:37.459Z,0.63
2022-09-02T21:14:14.631Z,0.68
2022-09-02T21:16:49.842Z,0.73
2022-09-02T21:19:43.458Z,0.70
2022-09-02T21:22:31.100Z,0.70
2022-09-02T21:25:10.722Z,0.90
2022-09-02T21:27:56.778Z,0.80
2022-09-02T21:30:26.196Z,0.70
2022-09-02T21:33:01.098Z,0.70
2022-09-02T21:35:28.485Z,0.88
2022-09-02T21:38:03.391Z,0.90
2022-09-02T21:40:45.591Z,0.80
2022-09-02T21:43:12.977Z,0.60
2022-09-02T21:46:05.850Z,0.70
2022-09-02T21:48:37.299Z,0.70
2022-09-02T21:51:15.158Z,0.85
2022-09-02T21:53:52.903Z,0.63
2022-09-02T21:56:26.403Z,0.90
2022-09-02T21:58:59.748Z,0.80
2022-09-02T22:01:42.137Z,0.80
2022-09-02T22:04:21.544Z,0.80
2022-09-02T22:06:51.566Z,0.80
2022-09-02T22:09:28.584Z,0.60
2022-09-02T22:12:14.854Z,0.90
2022-09-02T22:14:54.063Z,0.70
2022-09-02T22:17:25.130Z,0.63
2022-09-02T22:19:58.034Z,0.82
2022-09-02T22:22:29.112Z,0.88
2022-09-02T22:24:58.142Z,0.93
2022-09-02T22:27:28.760Z,0.82
2022-09-02T22:29:59.929Z,1.00
2022-09-02T22:32:32.183Z,0.70
2022-09-02T22:35:09.565Z,0.95
2022-09-02T22:38:10.607Z,0.80
2022-09-02T22:40:43.336Z,0.70
2022-09-02T22:43:15.662Z,0.90
2022-09-02T22:46:05.120Z,0.80
2022-09-02T22:48:57.749Z,0.70
2022-09-02T22:51:48.267Z,1.10
2022-09-02T22:54:15.940Z,0.77
2022-09-02T22:56:49.357Z,0.93
2022-09-02T22:59:29.689Z,1.00
2022-09-02T23:02:15.808Z,1.00
2022-09-02T23:04:51.166Z,0.98
2022-09-02T23:07:18.508Z,0.80
2022-09-02T23:09:48.252Z,0.73
2022-09-02T23:12:26.960Z,0.75
2022-09-02T23:15:04.297Z,0.70
2022-09-02T23:17:39.130Z,0.85
2022-09-02T23:20:07.079Z,0.90
2022-09-02T23:22:34.588Z,0.80
2022-09-02T23:25:13.782Z,1.08
2022-09-02T23:27:44.465Z,1.02
2022-09-02T23:30:14.766Z,0.70
2022-09-02T23:33:03.744Z,0.90
2022-09-02T23:35:35.159Z,0.85
2022-09-02T23:38:07.257Z,0.80
2022-09-02T23:40:37.639Z,0.82
2022-09-02T23:43:05.231Z,0.98
2022-09-02T23:45:34.005Z,1.00
2022-09-02T23:48:10.612Z,1.30
2022-09-02T23:50:46.010Z,0.90
2022-09-02T23:53:24.998Z,1.05
2022-09-02T23:55:52.551Z,0.93
2022-09-02T23:58:40.195Z,0.88
